Time;durP1;ratioP1;P1;durP2;ratioP2;P2;SDS_P1;SDS_P2;PMS_P1;PMS_P2;Temp;Humidity;BMP_temperature;BMP_pressure;BME280_temperature;BME280_humidity;BME280_pressure;Samples;Min_cycle;Max_cycle;Signal;HPM_P1;HPM_P2
2022/02/18 00:00:05;;;;;;;1999.90;999.90;;;;;;;5.53;71.55;163871.81;5024447;28;20084;-67
2022/02/18 00:02:31;;;;;;;1999.90;999.90;;;;;;;5.76;70.00;163932.19;5017214;28;20318;-68
2022/02/18 00:04:58;;;;;;;1999.90;999.90;;;;;;;5.74;69.64;163926.72;5010961;28;20462;-67
2022/02/18 00:07:24;;;;;;;1999.90;999.90;;;;;;;6.09;68.52;164021.53;5012647;28;20407;-68
2022/02/18 00:09:50;;;;;;;1999.90;999.90;;;;;;;5.75;69.09;163929.50;5015915;28;20074;-68
2022/02/18 00:12:17;;;;;;;1999.90;999.90;;;;;;;5.64;69.91;163902.03;5023072;28;20085;-69
2022/02/18 00:14:43;;;;;;;1999.90;999.90;;;;;;;5.51;70.22;163864.94;5017954;28;20088;-68
2022/02/18 00:17:10;;;;;;;1999.90;999.90;;;;;;;5.84;69.43;163952.84;5023964;28;20087;-69
2022/02/18 00:19:36;;;;;;;1999.90;999.90;;;;;;;5.50;69.63;163863.56;5012383;28;20108;-69
2022/02/18 00:22:03;;;;;;;1999.90;999.90;;;;;;;5.74;69.26;163926.72;5017459;28;20096;-69
2022/02/18 00:24:30;;;;;;;1999.90;999.90;;;;;;;5.87;69.21;163962.41;5011100;28;20081;-69
2022/02/18 00:26:56;;;;;;;1999.90;999.90;;;;;;;5.77;69.09;163936.31;5020092;28;20093;-69
2022/02/18 00:29:23;;;;;;;1999.90;999.90;;;;;;;5.58;69.85;163885.56;5010965;28;20100;-68
2022/02/18 00:31:49;;;;;;;1999.90;999.90;;;;;;;5.93;69.02;163978.88;5012878;28;20459;-68
2022/02/18 00:34:16;;;;;;;1999.90;999.90;;;;;;;5.92;69.48;163974.78;5012491;28;20042;-68
2022/02/18 00:36:42;;;;;;;1999.90;999.90;;;;;;;6.68;67.62;164178.06;5017378;28;20188;-69
2022/02/18 00:39:09;;;;;;;1999.90;999.90;;;;;;;6.73;67.94;164190.41;5020553;28;20107;-67
2022/02/18 00:41:37;;;;;;;1999.90;999.90;;;;;;;6.13;70.20;164032.50;5017921;28;20057;-67
2022/02/18 00:44:04;;;;;;;1999.90;999.90;;;;;;;6.05;68.82;164009.16;5012446;28;20057;-67
2022/02/18 00:46:31;;;;;;;1999.90;999.90;;;;;;;5.86;69.59;163958.31;5022784;28;20060;-68
2022/02/18 00:48:59;;;;;;;1999.90;999.90;;;;;;;6.04;69.73;164006.41;5016054;28;20045;-68
2022/02/18 00:51:26;;;;;;;1999.90;999.90;;;;;;;6.01;70.00;163998.16;5021882;28;20131;-68
2022/02/18 00:53:53;;;;;;;1999.90;999.90;;;;;;;5.74;70.80;163926.72;5021016;28;20046;-68
2022/02/18 00:56:19;;;;;;;1999.90;999.90;;;;;;;5.69;71.14;163913.03;5024558;28;20060;-69
2022/02/18 00:58:46;;;;;;;1999.90;999.90;;;;;;;5.89;70.54;163966.53;5021852;28;20132;-68
2022/02/18 01:01:13;;;;;;;1999.90;999.90;;;;;;;5.98;70.29;163992.69;5015772;28;20069;-67
2022/02/18 01:03:40;;;;;;;1999.90;999.90;;;;;;;5.74;70.46;163928.09;5016660;28;20068;-68
2022/02/18 01:06:07;;;;;;;1999.90;999.90;;;;;;;5.83;70.24;163951.44;5025337;28;20100;-68
2022/02/18 01:08:33;;;;;;;1999.90;999.90;;;;;;;5.22;72.18;163789.44;5017055;28;20049;-69
2022/02/18 01:11:02;;;;;;;1999.90;999.90;;;;;;;5.46;71.93;163852.59;5024256;28;20414;-68
2022/02/18 01:13:29;;;;;;;1999.90;999.90;;;;;;;5.54;71.31;163873.16;5016750;28;20050;-68
2022/02/18 01:15:55;;;;;;;1999.90;999.90;;;;;;;5.44;71.72;163847.13;5019195;28;20332;-68
2022/02/18 01:18:22;;;;;;;1999.90;999.90;;;;;;;5.40;72.05;163836.13;5015910;28;20392;-68
2022/02/18 01:20:49;;;;;;;1999.90;999.90;;;;;;;5.61;71.53;163893.78;5028399;28;20049;-68
2022/02/18 01:23:15;;;;;;;1999.90;999.90;;;;;;;5.71;71.35;163918.50;5016074;28;20088;-68
2022/02/18 01:25:42;;;;;;;1999.90;999.90;;;;;;;5.85;70.67;163955.53;5018729;28;20095;-68
2022/02/18 01:28:09;;;;;;;1999.90;999.90;;;;;;;5.94;70.86;163981.66;5014779;28;20442;-68
2022/02/18 01:30:37;;;;;;;1999.90;999.90;;;;;;;5.76;71.38;163932.19;5015794;28;20478;-69
2022/02/18 01:33:04;;;;;;;1999.90;999.90;;;;;;;5.51;72.40;163866.34;5021999;28;20382;-69
2022/02/18 01:35:30;;;;;;;1999.90;999.90;;;;;;;5.72;71.90;163922.59;5025864;28;20089;-69
2022/02/18 01:37:57;;;;;;;1999.90;999.90;;;;;;;5.63;72.16;163899.28;5019490;28;20049;-69
2022/02/18 01:40:24;;;;;;;1999.90;999.90;;;;;;;5.70;72.62;163915.72;5019536;28;20038;-69
2022/02/18 01:42:51;;;;;;;1999.90;999.90;;;;;;;5.67;72.96;163907.50;5019741;28;20103;-69
2022/02/18 01:45:17;;;;;;;1999.90;999.90;;;;;;;5.41;74.12;163838.88;5015827;28;20494;-69
2022/02/18 01:47:44;;;;;;;1999.90;999.90;;;;;;;5.40;74.76;163836.13;5020404;28;20080;-66
2022/02/18 01:50:10;;;;;;;1999.90;999.90;;;;;;;5.67;74.21;163907.50;5018618;28;20110;-68
2022/02/18 01:52:41;;;;;;;1999.90;999.90;;;;;;;5.27;75.61;163803.19;5026673;28;20049;-68
2022/02/18 01:55:10;;;;;;;1999.90;999.90;;;;;;;5.50;75.15;163863.56;5019930;28;20096;-67
2022/02/18 01:57:42;;;;;;;1999.90;999.90;;;;;;;5.39;75.41;163833.38;5014569;28;20170;-67
2022/02/18 02:00:11;;;;;;;1999.90;999.90;;;;;;;5.23;76.39;163790.84;5017356;28;20394;-67
2022/02/18 02:02:37;;;;;;;1999.90;999.90;;;;;;;5.06;76.83;163745.53;5017922;28;20358;-67
2022/02/18 02:05:05;;;;;;;1999.90;999.90;;;;;;;4.73;78.07;163657.75;5020883;28;20050;-67
2022/02/18 02:07:37;;;;;;;1999.90;999.90;;;;;;;5.06;77.92;163745.53;5020535;28;20089;-67
2022/02/18 02:10:08;;;;;;;1999.90;999.90;;;;;;;4.54;79.16;163608.38;5015384;28;20078;-67
2022/02/18 02:12:43;;;;;;;1999.90;999.90;;;;;;;4.56;78.75;163613.84;5017263;28;20057;-68
2022/02/18 02:15:11;;;;;;;1999.90;999.90;;;;;;;4.52;79.02;163602.88;5017858;28;20354;-67
2022/02/18 02:17:38;;;;;;;1999.90;999.90;;;;;;;4.55;78.00;163611.09;5020325;28;20354;-68
2022/02/18 02:20:06;;;;;;;1999.90;999.90;;;;;;;4.80;76.49;163676.97;5017060;28;20087;-68
2022/02/18 02:22:32;;;;;;;1999.90;999.90;;;;;;;4.83;76.46;163683.84;5017166;28;20049;-68
2022/02/18 02:24:59;;;;;;;1999.90;999.90;;;;;;;4.64;74.79;163633.06;5011931;28;20147;-67
2022/02/18 02:27:26;;;;;;;1999.90;999.90;;;;;;;4.90;73.66;163704.41;5016342;28;20049;-66
2022/02/18 02:29:52;;;;;;;1999.90;999.90;;;;;;;5.04;72.83;163740.06;5017347;28;20073;-68
2022/02/18 02:32:21;;;;;;;1999.90;999.90;;;;;;;5.21;72.09;163785.34;5018819;28;20053;-68
2022/02/18 02:34:48;;;;;;;1999.90;999.90;;;;;;;4.99;72.35;163727.72;5011476;28;20081;-68
2022/02/18 02:37:15;;;;;;;1999.90;999.90;;;;;;;5.10;72.25;163756.53;5013251;28;20053;-68
2022/02/18 02:39:41;;;;;;;1999.90;999.90;;;;;;;5.22;72.26;163789.44;5019402;28;20132;-68
2022/02/18 02:42:08;;;;;;;1999.90;999.90;;;;;;;5.01;72.11;163731.84;5012546;28;20053;-68
2022/02/18 02:44:35;;;;;;;1999.90;999.90;;;;;;;5.59;71.19;163888.28;5020446;28;20450;-68
2022/02/18 02:47:03;;;;;;;1999.90;999.90;;;;;;;5.79;70.07;163941.84;5016746;28;20141;-68
2022/02/18 02:49:31;;;;;;;1999.90;999.90;;;;;;;5.79;69.73;163941.84;5026851;28;20108;-68
2022/02/18 02:51:58;;;;;;;1999.90;999.90;;;;;;;5.98;69.05;163992.69;5024943;28;20077;-68
2022/02/18 02:54:25;;;;;;;1999.90;999.90;;;;;;;6.28;68.24;164072.34;5021123;28;20069;-68
2022/02/18 02:56:56;;;;;;;1999.90;999.90;;;;;;;6.15;67.90;164036.63;5020679;28;20084;-68
2022/02/18 02:59:24;;;;;;;1999.90;999.90;;;;;;;6.11;67.28;164027.00;5015669;28;20042;-68
2022/02/18 03:01:52;;;;;;;1999.90;999.90;;;;;;;5.90;67.72;163970.66;5020565;28;20046;-68
2022/02/18 03:04:19;;;;;;;1999.90;999.90;;;;;;;5.96;67.66;163987.13;5023784;28;20050;-68
2022/02/18 03:06:46;;;;;;;1999.90;999.90;;;;;;;5.14;69.95;163767.53;5016765;28;20131;-68
2022/02/18 03:09:31;;;;;;;1999.90;999.90;;;;;;;4.84;71.58;163686.53;5024817;28;20049;-68
2022/02/18 03:11:58;;;;;;;1999.90;999.90;;;;;;;5.15;70.17;163770.28;5026291;28;20107;-68
2022/02/18 03:14:25;;;;;;;1999.90;999.90;;;;;;;5.27;69.13;163801.84;5021118;28;20150;-68
2022/02/18 03:16:52;;;;;;;1999.90;999.90;;;;;;;5.52;68.54;163869.06;5021782;28;20216;-68
2022/02/18 03:19:18;;;;;;;1999.90;999.90;;;;;;;5.78;67.18;163937.72;5011278;28;20074;-68
2022/02/18 03:21:45;;;;;;;1999.90;999.90;;;;;;;5.05;68.95;163742.84;5020904;28;20080;-68
2022/02/18 03:24:11;;;;;;;1999.90;999.90;;;;;;;4.79;70.24;163674.19;5018046;28;20084;-68
2022/02/18 03:26:38;;;;;;;1999.90;999.90;;;;;;;4.61;71.24;163624.84;5016270;28;20121;-68
2022/02/18 03:29:05;;;;;;;1999.90;999.90;;;;;;;4.52;71.74;163602.88;5018136;28;20613;-68
2022/02/18 03:31:31;;;;;;;1999.90;999.90;;;;;;;4.50;71.86;163596.03;5024258;28;20046;-68
2022/02/18 03:33:58;;;;;;;1999.90;999.90;;;;;;;4.86;71.20;163693.41;5024202;28;20131;-68
2022/02/18 03:36:24;;;;;;;1999.90;999.90;;;;;;;4.83;70.72;163683.84;5019746;28;20042;-68
2022/02/18 03:38:51;;;;;;;1999.90;999.90;;;;;;;5.02;70.50;163734.59;5015191;28;20112;-68
2022/02/18 03:41:19;;;;;;;1999.90;999.90;;;;;;;5.04;70.26;163740.06;5018486;28;20038;-68
2022/02/18 03:43:46;;;;;;;1999.90;999.90;;;;;;;4.97;70.65;163720.84;5017393;28;20073;-68
2022/02/18 03:46:12;;;;;;;1999.90;999.90;;;;;;;4.45;71.73;163583.72;5025099;28;20483;-68
2022/02/18 03:48:39;;;;;;;1999.90;999.90;;;;;;;4.61;71.33;163626.19;5014814;28;20455;-68
2022/02/18 03:51:05;;;;;;;1999.90;999.90;;;;;;;4.43;71.79;163578.19;5014884;28;20624;-68
2022/02/18 03:53:32;;;;;;;1999.90;999.90;;;;;;;4.52;71.70;163601.50;5017426;28;20111;-68
2022/02/18 03:55:59;;;;;;;1999.90;999.90;;;;;;;4.61;71.52;163626.19;5018524;28;20524;-68
2022/02/18 03:58:26;;;;;;;1999.90;999.90;;;;;;;4.73;71.12;163657.75;5023894;28;20046;-68
2022/02/18 04:00:53;;;;;;;1999.90;999.90;;;;;;;4.23;72.66;163526.09;5024266;28;20052;-68
2022/02/18 04:03:20;;;;;;;1999.90;999.90;;;;;;;4.43;72.58;163578.19;5024527;28;20119;-68
2022/02/18 04:05:47;;;;;;;1999.90;999.90;;;;;;;4.41;72.63;163574.06;5019686;28;20049;-68
2022/02/18 04:08:13;;;;;;;1999.90;999.90;;;;;;;4.26;73.21;163531.53;5014056;28;20049;-68
2022/02/18 04:10:40;;;;;;;1999.90;999.90;;;;;;;4.56;72.50;163612.50;5014128;28;20046;-68
2022/02/18 04:13:06;;;;;;;1999.90;999.90;;;;;;;4.33;73.24;163550.75;5012728;28;20053;-68
2022/02/18 04:15:33;;;;;;;1999.90;999.90;;;;;;;4.29;72.87;163541.19;5025424;28;20081;-68
2022/02/18 04:18:00;;;;;;;1999.90;999.90;;;;;;;4.32;73.34;163549.41;5012879;28;20111;-68
2022/02/18 04:20:27;;;;;;;1999.90;999.90;;;;;;;4.46;73.46;163586.41;5016477;28;20057;-68
2022/02/18 04:23:13;;;;;;;1999.90;999.90;;;;;;;4.41;73.77;163572.72;5014590;28;20092;-68
2022/02/18 04:25:40;;;;;;;1999.90;999.90;;;;;;;4.47;73.47;163589.19;5015147;28;20107;-68
2022/02/18 04:28:07;;;;;;;1999.90;999.90;;;;;;;4.54;73.75;163606.97;5021443;28;20054;-68
2022/02/18 04:30:34;;;;;;;1999.90;999.90;;;;;;;4.21;74.34;163520.63;5014736;28;20359;-68
2022/02/18 04:33:01;;;;;;;1999.90;999.90;;;;;;;4.08;74.81;163484.97;5008983;28;20132;-68
2022/02/18 04:35:28;;;;;;;1999.90;999.90;;;;;;;3.80;76.38;163410.91;5011960;28;20108;-68
2022/02/18 04:37:55;;;;;;;1999.90;999.90;;;;;;;3.90;76.26;163436.97;5025137;28;20056;-68
2022/02/18 04:40:21;;;;;;;1999.90;999.90;;;;;;;3.77;77.25;163402.69;5020960;28;20435;-68
2022/02/18 04:42:48;;;;;;;1999.90;999.90;;;;;;;3.92;77.05;163441.09;5019948;28;20427;-68
2022/02/18 04:45:14;;;;;;;1999.90;999.90;;;;;;;3.78;77.66;163405.44;5013418;28;20120;-68
2022/02/18 04:47:41;;;;;;;1999.90;999.90;;;;;;;3.80;78.06;163410.91;5021559;28;20064;-68
2022/02/18 04:50:08;;;;;;;1999.90;999.90;;;;;;;3.69;78.26;163380.72;5012647;28;20407;-68
2022/02/18 04:52:36;;;;;;;1999.90;999.90;;;;;;;3.62;78.74;163361.59;5018427;28;20072;-68
2022/02/18 04:55:05;;;;;;;1999.90;999.90;;;;;;;3.91;77.97;163438.34;5016140;28;20042;-68
2022/02/18 04:57:32;;;;;;;1999.90;999.90;;;;;;;3.78;78.42;163405.44;5016940;28;20130;-68
2022/02/18 04:59:59;;;;;;;1999.90;999.90;;;;;;;4.16;77.43;163505.53;5015255;28;20077;-68
2022/02/18 05:02:26;;;;;;;1999.90;999.90;;;;;;;3.95;77.76;163450.66;5023999;28;20057;-68
2022/02/18 05:04:53;;;;;;;1999.90;999.90;;;;;;;3.91;78.33;163438.34;5017232;28;20045;-68
2022/02/18 05:07:19;;;;;;;1999.90;999.90;;;;;;;4.04;77.77;163474.00;5023976;28;20380;-68
2022/02/18 05:09:46;;;;;;;1999.90;999.90;;;;;;;3.95;78.24;163449.31;5021514;28;20049;-68
2022/02/18 05:12:12;;;;;;;1999.90;999.90;;;;;;;4.06;77.47;163479.44;5021571;28;20081;-68
2022/02/18 05:14:39;;;;;;;1999.90;999.90;;;;;;;4.18;77.44;163512.41;5016883;28;20050;-68
2022/02/18 05:17:05;;;;;;;1999.90;999.90;;;;;;;4.05;77.24;163476.75;5011033;28;20095;-68
2022/02/18 05:19:32;;;;;;;1999.90;999.90;;;;;;;3.99;76.48;163460.25;5014402;28;20103;-68
2022/02/18 05:21:58;;;;;;;1999.90;999.90;;;;;;;3.99;76.64;163460.25;5016214;28;20084;-68
2022/02/18 05:24:25;;;;;;;1999.90;999.90;;;;;;;4.19;76.06;163515.09;5019637;28;20112;-68
2022/02/18 05:26:51;;;;;;;1999.90;999.90;;;;;;;4.14;75.76;163501.41;5022088;28;20089;-68
2022/02/18 05:29:17;;;;;;;1999.90;999.90;;;;;;;4.03;76.32;163471.22;5020187;28;20084;-68
2022/02/18 05:31:44;;;;;;;1999.90;999.90;;;;;;;4.06;76.63;163479.44;5019788;28;20146;-68
2022/02/18 05:34:11;;;;;;;1999.90;999.90;;;;;;;3.82;77.53;163416.38;5016326;28;20889;-68
2022/02/18 05:36:38;;;;;;;1999.90;999.90;;;;;;;3.66;78.02;163373.91;5021341;28;20184;-68
2022/02/18 05:39:05;;;;;;;1999.90;999.90;;;;;;;4.06;76.80;163479.44;5021965;28;20108;-68
2022/02/18 05:41:31;;;;;;;1999.90;999.90;;;;;;;3.92;77.14;163441.09;5020696;28;20076;-68
2022/02/18 05:43:58;;;;;;;1999.90;999.90;;;;;;;3.53;78.55;163338.28;5021797;28;20393;-68
2022/02/18 05:46:24;;;;;;;1999.90;999.90;;;;;;;3.45;78.85;163317.69;5016306;28;20089;-68
2022/02/18 05:48:51;;;;;;;1999.90;999.90;;;;;;;3.76;77.48;163398.59;5015307;28;20054;-68
2022/02/18 05:51:17;;;;;;;1999.90;999.90;;;;;;;3.52;78.55;163336.88;5017361;28;20050;-68
2022/02/18 05:53:44;;;;;;;1999.90;999.90;;;;;;;3.68;77.95;163378.03;5017076;28;20086;-68
2022/02/18 05:56:10;;;;;;;1999.90;999.90;;;;;;;3.74;77.76;163394.47;5018932;28;20093;-68
2022/02/18 05:58:37;;;;;;;1999.90;999.90;;;;;;;3.47;78.52;163323.19;5015140;28;20107;-68
2022/02/18 06:01:03;;;;;;;1999.90;999.90;;;;;;;3.62;78.28;163361.59;5019962;28;20444;-68
2022/02/18 06:03:30;;;;;;;1999.90;999.90;;;;;;;3.65;77.97;163371.16;5012560;28;20050;-68
2022/02/18 06:05:56;;;;;;;1999.90;999.90;;;;;;;3.73;78.28;163391.72;5023116;28;20081;-68
2022/02/18 06:08:23;;;;;;;1999.90;999.90;;;;;;;3.86;77.85;163427.34;5016986;28;20050;-68
2022/02/18 06:10:50;;;;;;;1999.90;999.90;;;;;;;3.89;77.69;163434.22;5010762;28;20081;-68
2022/02/18 06:13:18;;;;;;;1999.90;999.90;;;;;;;3.60;78.89;163357.41;5017614;28;20122;-68
2022/02/18 06:15:45;;;;;;;1999.90;999.90;;;;;;;3.59;79.19;163354.72;5020341;28;20061;-67
2022/02/18 06:18:12;;;;;;;1999.90;999.90;;;;;;;3.67;79.19;163376.63;5020137;28;20087;-69
2022/02/18 06:20:38;;;;;;;1999.90;999.90;;;;;;;3.59;79.62;163354.72;5014314;28;20081;-67
2022/02/18 06:23:05;;;;;;;1999.90;999.90;;;;;;;3.49;79.72;163327.31;5011175;28;20077;-67
2022/02/18 06:25:31;;;;;;;1999.90;999.90;;;;;;;3.58;79.89;163350.59;5016613;28;20077;-67
2022/02/18 06:28:09;;;;;;;1999.90;999.90;;;;;;;3.87;78.79;163428.72;5013942;28;20458;-67
2022/02/18 06:30:37;;;;;;;1999.90;999.90;;;;;;;3.94;78.21;163447.91;5010630;28;20054;-67
2022/02/18 06:33:07;;;;;;;1999.90;999.90;;;;;;;3.92;78.31;163441.09;5016309;28;20100;-67
2022/02/18 06:35:35;;;;;;;1999.90;999.90;;;;;;;3.89;78.32;163434.22;5021096;28;20092;-67
2022/02/18 06:38:01;;;;;;;1999.90;999.90;;;;;;;3.98;78.20;163458.91;5009425;28;20077;-67
2022/02/18 06:40:28;;;;;;;1999.90;999.90;;;;;;;4.09;77.91;163486.31;5029818;28;20045;-67
2022/02/18 06:42:54;;;;;;;1999.90;999.90;;;;;;;4.15;77.49;163502.75;5017446;28;20455;-67
2022/02/18 06:45:21;;;;;;;1999.90;999.90;;;;;;;4.03;77.88;163471.22;5013921;28;20054;-67
2022/02/18 06:47:48;;;;;;;1999.90;999.90;;;;;;;4.39;77.19;163568.63;5014586;28;20087;-67
2022/02/18 06:50:16;;;;;;;1999.90;999.90;;;;;;;4.51;76.36;163600.16;5018393;28;20344;-68
2022/02/18 06:52:44;;;;;;;1999.90;999.90;;;;;;;4.81;75.39;163679.72;5013345;28;20053;-68
2022/02/18 06:55:12;;;;;;;1999.90;999.90;;;;;;;5.05;74.53;163742.84;5013440;28;20116;-68
2022/02/18 06:57:45;;;;;;;1999.90;999.90;;;;;;;4.88;75.13;163698.94;5019970;28;20056;-68
2022/02/18 07:00:13;;;;;;;1999.90;999.90;;;;;;;4.84;75.05;163686.53;5022224;28;20053;-68
2022/02/18 07:02:41;;;;;;;1999.90;999.90;;;;;;;4.66;74.92;163638.53;5024672;28;20080;-69
2022/02/18 07:05:13;;;;;;;1999.90;999.90;;;;;;;4.79;75.56;163674.19;5014785;28;20045;-68
2022/02/18 07:07:40;;;;;;;1999.90;999.90;;;;;;;4.85;75.03;163689.31;5013121;28;20104;-68
2022/02/18 07:10:09;;;;;;;1999.90;999.90;;;;;;;4.75;75.33;163664.63;5023339;28;20085;-68
2022/02/18 07:12:37;;;;;;;1999.90;999.90;;;;;;;4.34;76.75;163553.53;5021815;28;20049;-68
2022/02/18 07:15:05;;;;;;;1999.90;999.90;;;;;;;4.56;76.16;163613.84;5020028;28;20049;-69
2022/02/18 07:17:32;;;;;;;1999.90;999.90;;;;;;;4.55;76.39;163611.09;5013632;28;20045;-69
2022/02/18 07:19:59;;;;;;;1999.90;999.90;;;;;;;4.59;75.74;163622.06;5012458;28;20107;-68
2022/02/18 07:22:25;;;;;;;1999.90;999.90;;;;;;;4.73;75.70;163657.75;5018317;28;20385;-68
2022/02/18 07:24:52;;;;;;;1999.90;999.90;;;;;;;4.82;74.83;163682.44;5012445;28;20088;-68
2022/02/18 07:27:18;;;;;;;1999.90;999.90;;;;;;;4.89;74.51;163701.63;5012312;28;20431;-68
2022/02/18 07:29:45;;;;;;;1999.90;999.90;;;;;;;4.92;74.45;163709.88;5013283;28;20095;-69
2022/02/18 07:32:12;;;;;;;1999.90;999.90;;;;;;;4.87;75.02;163696.19;5012933;28;20045;-68
2022/02/18 07:34:39;;;;;;;1999.90;999.90;;;;;;;4.70;75.18;163650.88;5019285;28;20053;-69
2022/02/18 07:37:06;;;;;;;1999.90;999.90;;;;;;;5.17;74.63;163774.41;5019278;28;20069;-68
2022/02/18 07:39:32;;;;;;;1999.90;999.90;;;;;;;5.19;74.31;163781.22;5018986;28;20108;-69
2022/02/18 07:41:59;;;;;;;1999.90;999.90;;;;;;;5.26;73.98;163799.09;5017348;28;20139;-68
2022/02/18 07:44:25;;;;;;;1999.90;999.90;;;;;;;5.53;73.09;163871.81;5027821;28;20410;-66
2022/02/18 07:46:52;;;;;;;1999.90;999.90;;;;;;;5.25;73.51;163797.69;5015892;28;20046;-67
2022/02/18 07:49:40;;;;;;;1999.90;999.90;;;;;;;5.42;73.08;163841.66;5009069;28;20046;-68
2022/02/18 07:52:07;;;;;;;1999.90;999.90;;;;;;;5.10;74.24;163757.88;5010392;28;20042;-68
2022/02/18 07:54:34;;;;;;;1999.90;999.90;;;;;;;5.33;73.52;163816.91;5021039;28;20045;-67
2022/02/18 07:57:01;;;;;;;1999.90;999.90;;;;;;;5.68;73.19;163910.25;5020456;28;20479;-68
2022/02/18 07:59:28;;;;;;;1999.90;999.90;;;;;;;5.80;72.46;163943.19;5024338;28;20058;-67
2022/02/18 08:01:55;;;;;;;1999.90;999.90;;;;;;;5.90;71.36;163970.66;5012784;28;20108;-68
2022/02/18 08:04:21;;;;;;;1999.90;999.90;;;;;;;5.82;71.28;163948.66;5011600;28;20057;-68
2022/02/18 08:06:48;;;;;;;1999.90;999.90;;;;;;;6.13;71.09;164032.50;5022223;28;20072;-68
2022/02/18 08:09:14;;;;;;;1999.90;999.90;;;;;;;6.31;69.88;164079.16;5017686;28;20328;-68
2022/02/18 08:11:41;;;;;;;1999.90;999.90;;;;;;;6.58;69.36;164152.00;5014947;28;20109;-68
2022/02/18 08:14:07;;;;;;;1999.90;999.90;;;;;;;6.17;68.70;164042.09;5017090;28;20505;-68
2022/02/18 08:16:34;;;;;;;1999.90;999.90;;;;;;;6.27;69.90;164069.56;5015114;28;20085;-68
2022/02/18 08:19:00;;;;;;;1999.90;999.90;;;;;;;6.43;69.14;164110.75;5018812;28;20134;-68
2022/02/18 08:21:27;;;;;;;1999.90;999.90;;;;;;;6.63;68.71;164164.34;5012388;28;20390;-68
2022/02/18 08:23:54;;;;;;;1999.90;999.90;;;;;;;6.85;67.39;164223.44;5022388;28;20319;-68
2022/02/18 08:26:24;;;;;;;1999.90;999.90;;;;;;;6.83;67.30;164217.91;5020454;28;20069;-68
2022/02/18 08:28:51;;;;;;;1999.90;999.90;;;;;;;6.64;67.81;164167.06;5022057;28;20088;-68
2022/02/18 08:31:17;;;;;;;1999.90;999.90;;;;;;;7.02;66.12;164270.09;5018333;28;20131;-68
2022/02/18 08:33:44;;;;;;;1999.90;999.90;;;;;;;7.22;65.31;164322.34;5014364;28;20509;-68
2022/02/18 08:36:11;;;;;;;1999.90;999.90;;;;;;;7.18;65.15;164312.72;5019676;28;20085;-69
2022/02/18 08:38:38;;;;;;;1999.90;999.90;;;;;;;7.10;65.96;164289.34;5022564;28;20091;-69
2022/02/18 08:41:04;;;;;;;1999.90;999.90;;;;;;;6.95;66.37;164250.91;5021495;28;20073;-69
2022/02/18 08:43:31;;;;;;;1999.90;999.90;;;;;;;7.63;65.48;164430.91;5015155;28;20407;-69
2022/02/18 08:45:58;;;;;;;1999.90;999.90;;;;;;;7.42;64.38;164374.56;5016289;28;20379;-69
2022/02/18 08:48:24;;;;;;;1999.90;999.90;;;;;;;7.43;63.72;164377.28;5012814;28;20089;-69
2022/02/18 08:50:51;;;;;;;1999.90;999.90;;;;;;;7.81;62.72;164479.03;5017971;28;20076;-69
2022/02/18 08:53:17;;;;;;;1999.90;999.90;;;;;;;7.62;62.59;164429.50;5023579;28;20515;-69
2022/02/18 08:55:44;;;;;;;1999.90;999.90;;;;;;;7.46;63.22;164385.53;5025684;28;20384;-69
2022/02/18 08:58:11;;;;;;;1999.90;999.90;;;;;;;7.90;63.68;164505.16;5023458;28;20088;-69
2022/02/18 09:00:37;;;;;;;1999.90;999.90;;;;;;;8.05;64.17;164545.03;5012570;28;20553;-69
2022/02/18 09:03:04;;;;;;;1999.90;999.90;;;;;;;7.78;65.47;164470.78;5022179;28;20061;-69
2022/02/18 09:05:31;;;;;;;1999.90;999.90;;;;;;;7.86;65.56;164492.75;5010409;28;20050;-69
2022/02/18 09:07:57;;;;;;;1999.90;999.90;;;;;;;7.85;65.96;164490.03;5021845;28;20080;-69
2022/02/18 09:10:24;;;;;;;1999.90;999.90;;;;;;;7.46;66.93;164385.53;5021647;28;20045;-69
2022/02/18 09:12:51;;;;;;;1999.90;999.90;;;;;;;7.44;69.23;164381.41;5023984;28;20438;-69
2022/02/18 09:15:19;;;;;;;1999.90;999.90;;;;;;;7.46;70.00;164385.53;5021103;28;20053;-69
2022/02/18 09:17:45;;;;;;;1999.90;999.90;;;;;;;7.63;70.49;164432.28;5012052;28;20049;-68
2022/02/18 09:20:12;;;;;;;1999.90;999.90;;;;;;;7.60;69.50;164424.03;5012847;28;20050;-68
2022/02/18 09:22:39;;;;;;;1999.90;999.90;;;;;;;7.28;70.91;164337.44;5014544;28;20096;-68
2022/02/18 09:25:05;;;;;;;1999.90;999.90;;;;;;;7.42;69.88;164375.94;5025971;28;20216;-68
2022/02/18 09:27:32;;;;;;;1999.90;999.90;;;;;;;7.69;69.12;164448.75;5025161;28;20475;-70
2022/02/18 09:30:01;;;;;;;1999.90;999.90;;;;;;;7.79;69.44;164474.91;5025935;28;20049;-69
2022/02/18 09:32:28;;;;;;;1999.90;999.90;;;;;;;8.59;68.99;164688.06;5021739;28;20052;-67
2022/02/18 09:34:58;;;;;;;1999.90;999.90;;;;;;;8.04;67.96;164540.84;5023747;28;20387;-68
2022/02/18 09:37:24;;;;;;;1999.90;999.90;;;;;;;8.04;68.10;164540.84;5027980;28;20046;-68
2022/02/18 09:39:51;;;;;;;1999.90;999.90;;;;;;;7.90;67.93;164503.75;5021656;28;20108;-69
2022/02/18 09:42:19;;;;;;;1999.90;999.90;;;;;;;8.15;66.92;164569.78;5015294;28;20045;-69
2022/02/18 09:44:47;;;;;;;1999.90;999.90;;;;;;;8.65;66.39;164704.59;5024854;28;20591;-68
2022/02/18 09:47:14;;;;;;;1999.90;999.90;;;;;;;8.71;64.92;164721.09;5027376;28;20126;-68
2022/02/18 09:49:42;;;;;;;1999.90;999.90;;;;;;;8.59;64.79;164689.47;5018547;28;20454;-67
2022/02/18 09:52:14;;;;;;;1999.90;999.90;;;;;;;8.84;65.26;164755.47;5017370;28;20110;-69
2022/02/18 09:54:41;;;;;;;1999.90;999.90;;;;;;;9.31;63.66;164880.69;5014690;28;20054;-69
2022/02/18 09:57:08;;;;;;;1999.90;999.90;;;;;;;9.18;62.86;164846.28;5025453;28;20103;-69
2022/02/18 09:59:36;;;;;;;1999.90;999.90;;;;;;;9.01;62.64;164800.88;5017844;28;20115;-69
2022/02/18 10:02:04;;;;;;;1999.90;999.90;;;;;;;9.64;64.69;164970.13;5015278;28;20050;-68
2022/02/18 10:04:31;;;;;;;1999.90;999.90;;;;;;;9.48;65.04;164927.50;5015932;28;20553;-68
2022/02/18 10:07:01;;;;;;;1999.90;999.90;;;;;;;10.40;63.62;165172.56;5028476;28;20046;-68
2022/02/18 10:09:36;;;;;;;1999.90;999.90;;;;;;;9.21;65.18;164854.53;5017643;28;20127;-69
2022/02/18 10:12:03;;;;;;;1999.90;999.90;;;;;;;9.07;64.81;164817.38;5025656;28;20042;-68
2022/02/18 10:14:51;;;;;;;1999.90;999.90;;;;;;;9.39;65.43;164902.69;5024650;28;20093;-68
2022/02/18 10:17:17;;;;;;;1999.90;999.90;;;;;;;9.75;64.76;164997.66;5013899;28;20104;-68
2022/02/18 10:19:54;;;;;;;1999.90;999.90;;;;;;;9.82;63.17;165018.28;5019102;28;20054;-68
2022/02/18 10:22:28;;;;;;;1999.90;999.90;;;;;;;9.73;62.85;164992.16;5014897;28;20119;-68
2022/02/18 10:24:55;;;;;;;1999.90;999.90;;;;;;;9.28;64.92;164872.44;5023663;28;20049;-69
2022/02/18 10:27:43;;;;;;;1999.90;999.90;;;;;;;9.43;63.52;164913.69;5019430;28;20053;-69
2022/02/18 10:30:22;;;;;;;1999.90;999.90;;;;;;;9.60;63.13;164959.16;5028710;28;20556;-69
2022/02/18 10:32:53;;;;;;;1999.90;999.90;;;;;;;9.39;63.21;164902.69;5022242;28;20049;-69
2022/02/18 10:35:28;;;;;;;1999.90;999.90;;;;;;;9.59;62.38;164956.38;5017115;28;20060;-67
2022/02/18 10:37:54;;;;;;;1999.90;999.90;;;;;;;9.73;60.88;164993.53;5013188;28;20046;-67
2022/02/18 10:40:22;;;;;;;1999.90;999.90;;;;;;;9.41;62.25;164906.81;5021206;28;20435;-68
2022/02/18 10:42:51;;;;;;;1999.90;999.90;;;;;;;9.09;62.89;164822.88;5025253;28;20073;-68
2022/02/18 10:45:21;;;;;;;1999.90;999.90;;;;;;;9.30;63.20;164877.91;5021772;28;20116;-68
2022/02/18 10:47:49;;;;;;;1999.90;999.90;;;;;;;9.55;61.64;164944.00;5016205;28;20089;-68
2022/02/18 10:50:20;;;;;;;1999.90;999.90;;;;;;;9.33;61.72;164887.59;5013070;28;20323;-68
2022/02/18 10:53:09;;;;;;;1999.90;999.90;;;;;;;9.74;59.60;164996.28;5024075;28;20095;-68
2022/02/18 10:55:56;;;;;;;1999.90;999.90;;;;;;;10.21;59.23;165122.94;5020703;28;20053;-68